Terminal Aerodrome Forecast
Issued by NWS La Crosse, WI

Home | Current Version | Previous Version | Text Only | Print | Product List | Glossary On
Versions: 1 2 3 4 5 6 7 8 9 10 11 12 13 14 15 16 17 18 19 20 21 22 23 24 25 26 27 28 29 30 31 32 33 34
000
FTUS43 KARX 260334 AAA
TAFRST
TAF AMD
KRST 260334Z 2604/2624 17008KT 5SM -RA BR OVC017
     FM260800 28005KT 3SM BR OVC010
      TEMPO 2609/2613 2SM BR OVC007
     FM261400 33006KT P6SM SCT150=

USA.gov is the U.S. government's official web portal to all federal, state and local government web resources and services.